Airport View

Enter AWOS ICAO identifier for current METAR.

ex. KFNL

KHFJ 202235Z AUTO 16005KT 5SM BR OVC006 18/18 A2996 RMK AO2 LTG DSNT N

20 Oct 2020 22:59

Frequency: 118.275

Phone: 417-476-2613

Other Area AWOS: KJLN - KFWB - KROG - KVBT

TAF AMD KJLN 201925Z 2019/2118 20008KT P6SM OVC005 FM202100 22009KT 3SM BR VCSH OVC009 FM202300 24007KT P6SM VCSH OVC007 FM210600 VRB04KT 5SM -SHRA BR VCTS OVC012CB FM211300 10005KT P6SM BKN009 PROB30 2113/2118 4SM SHRA BR OVC005